sensor_id;sensor_type;location;lat;lon;timestamp;P1;durP1;ratioP1;P2;durP2;ratioP2
80411;SDS011;69749;42.684;23.360;2024-02-21T00:01:39;6.57;;;4.57;;
80411;SDS011;69749;42.684;23.360;2024-02-21T00:04:05;6.72;;;5.00;;
80411;SDS011;69749;42.684;23.360;2024-02-21T00:06:31;5.75;;;4.63;;
80411;SDS011;69749;42.684;23.360;2024-02-21T00:08:57;7.80;;;4.97;;
80411;SDS011;69749;42.684;23.360;2024-02-21T00:11:23;6.93;;;4.90;;
80411;SDS011;69749;42.684;23.360;2024-02-21T00:13:48;7.43;;;4.68;;
80411;SDS011;69749;42.684;23.360;2024-02-21T00:16:15;6.78;;;4.95;;
80411;SDS011;69749;42.684;23.360;2024-02-21T00:18:41;7.50;;;4.25;;
80411;SDS011;69749;42.684;23.360;2024-02-21T00:21:06;5.88;;;4.53;;
80411;SDS011;69749;42.684;23.360;2024-02-21T00:23:32;5.72;;;4.30;;
80411;SDS011;69749;42.684;23.360;2024-02-21T00:25:57;7.47;;;4.53;;
80411;SDS011;69749;42.684;23.360;2024-02-21T00:28:23;6.68;;;4.47;;
80411;SDS011;69749;42.684;23.360;2024-02-21T00:30:48;6.88;;;4.97;;
80411;SDS011;69749;42.684;23.360;2024-02-21T00:33:16;6.00;;;4.18;;
80411;SDS011;69749;42.684;23.360;2024-02-21T00:35:42;6.63;;;4.68;;
80411;SDS011;69749;42.684;23.360;2024-02-21T00:38:07;8.18;;;5.45;;
80411;SDS011;69749;42.684;23.360;2024-02-21T00:40:33;6.82;;;4.53;;
80411;SDS011;69749;42.684;23.360;2024-02-21T00:42:59;8.05;;;5.03;;
80411;SDS011;69749;42.684;23.360;2024-02-21T00:45:25;6.10;;;4.50;;
80411;SDS011;69749;42.684;23.360;2024-02-21T00:47:50;9.30;;;5.65;;
80411;SDS011;69749;42.684;23.360;2024-02-21T00:50:16;14.93;;;7.65;;
80411;SDS011;69749;42.684;23.360;2024-02-21T00:52:42;12.88;;;7.32;;
80411;SDS011;69749;42.684;23.360;2024-02-21T00:55:08;9.23;;;6.10;;
80411;SDS011;69749;42.684;23.360;2024-02-21T00:57:34;6.90;;;4.63;;
80411;SDS011;69749;42.684;23.360;2024-02-21T00:59:59;6.38;;;4.60;;
80411;SDS011;69749;42.684;23.360;2024-02-21T01:02:26;6.18;;;3.90;;
80411;SDS011;69749;42.684;23.360;2024-02-21T01:04:51;6.15;;;4.10;;
80411;SDS011;69749;42.684;23.360;2024-02-21T01:07:17;4.75;;;3.72;;
80411;SDS011;69749;42.684;23.360;2024-02-21T01:09:42;6.03;;;4.00;;
80411;SDS011;69749;42.684;23.360;2024-02-21T01:12:08;6.38;;;3.88;;
80411;SDS011;69749;42.684;23.360;2024-02-21T01:14:33;4.88;;;3.50;;
80411;SDS011;69749;42.684;23.360;2024-02-21T01:16:58;5.20;;;3.97;;
80411;SDS011;69749;42.684;23.360;2024-02-21T01:19:24;6.20;;;4.40;;
80411;SDS011;69749;42.684;23.360;2024-02-21T01:21:49;5.65;;;3.65;;
80411;SDS011;69749;42.684;23.360;2024-02-21T01:24:15;6.25;;;4.68;;
80411;SDS011;69749;42.684;23.360;2024-02-21T01:26:40;5.88;;;4.13;;
80411;SDS011;69749;42.684;23.360;2024-02-21T01:29:06;7.47;;;5.10;;
80411;SDS011;69749;42.684;23.360;2024-02-21T01:31:31;5.60;;;4.05;;
80411;SDS011;69749;42.684;23.360;2024-02-21T01:33:57;7.20;;;4.78;;
80411;SDS011;69749;42.684;23.360;2024-02-21T01:36:23;7.82;;;4.97;;
80411;SDS011;69749;42.684;23.360;2024-02-21T01:38:48;10.38;;;5.78;;
80411;SDS011;69749;42.684;23.360;2024-02-21T01:41:14;9.75;;;5.75;;
80411;SDS011;69749;42.684;23.360;2024-02-21T01:43:41;10.18;;;6.03;;
80411;SDS011;69749;42.684;23.360;2024-02-21T01:46:07;11.98;;;6.95;;
80411;SDS011;69749;42.684;23.360;2024-02-21T01:48:33;13.68;;;8.05;;
80411;SDS011;69749;42.684;23.360;2024-02-21T01:50:58;16.13;;;8.88;;
80411;SDS011;69749;42.684;23.360;2024-02-21T01:53:30;13.52;;;7.25;;
80411;SDS011;69749;42.684;23.360;2024-02-21T01:55:59;13.25;;;7.20;;
80411;SDS011;69749;42.684;23.360;2024-02-21T01:58:26;14.27;;;6.88;;
80411;SDS011;69749;42.684;23.360;2024-02-21T02:00:52;8.57;;;5.30;;
80411;SDS011;69749;42.684;23.360;2024-02-21T02:03:21;7.10;;;4.68;;
80411;SDS011;69749;42.684;23.360;2024-02-21T02:05:47;7.55;;;4.68;;
80411;SDS011;69749;42.684;23.360;2024-02-21T02:08:14;7.28;;;5.07;;
80411;SDS011;69749;42.684;23.360;2024-02-21T02:10:43;7.75;;;5.03;;
80411;SDS011;69749;42.684;23.360;2024-02-21T02:13:09;7.55;;;5.00;;
80411;SDS011;69749;42.684;23.360;2024-02-21T02:15:45;6.78;;;4.70;;
80411;SDS011;69749;42.684;23.360;2024-02-21T02:18:12;6.47;;;4.93;;
80411;SDS011;69749;42.684;23.360;2024-02-21T02:20:38;7.30;;;5.22;;
80411;SDS011;69749;42.684;23.360;2024-02-21T02:23:09;6.88;;;5.10;;
80411;SDS011;69749;42.684;23.360;2024-02-21T02:25:36;7.53;;;5.45;;
80411;SDS011;69749;42.684;23.360;2024-02-21T02:28:03;8.50;;;5.53;;
80411;SDS011;69749;42.684;23.360;2024-02-21T02:30:36;8.32;;;5.60;;
80411;SDS011;69749;42.684;23.360;2024-02-21T02:33:02;9.68;;;5.95;;
80411;SDS011;69749;42.684;23.360;2024-02-21T02:35:29;8.85;;;6.07;;
80411;SDS011;69749;42.684;23.360;2024-02-21T02:37:54;8.40;;;5.85;;
80411;SDS011;69749;42.684;23.360;2024-02-21T02:40:20;8.57;;;5.63;;
80411;SDS011;69749;42.684;23.360;2024-02-21T02:42:45;8.40;;;6.05;;
80411;SDS011;69749;42.684;23.360;2024-02-21T02:45:12;8.90;;;6.22;;
80411;SDS011;69749;42.684;23.360;2024-02-21T02:47:39;10.40;;;6.57;;
80411;SDS011;69749;42.684;23.360;2024-02-21T02:50:05;9.55;;;6.22;;
80411;SDS011;69749;42.684;23.360;2024-02-21T02:52:31;9.25;;;5.80;;
80411;SDS011;69749;42.684;23.360;2024-02-21T02:54:56;9.02;;;5.65;;
80411;SDS011;69749;42.684;23.360;2024-02-21T02:57:22;9.00;;;6.00;;
80411;SDS011;69749;42.684;23.360;2024-02-21T02:59:50;8.68;;;5.60;;
80411;SDS011;69749;42.684;23.360;2024-02-21T03:02:16;9.73;;;6.07;;
80411;SDS011;69749;42.684;23.360;2024-02-21T03:04:43;10.02;;;5.85;;
80411;SDS011;69749;42.684;23.360;2024-02-21T03:07:08;10.15;;;6.32;;
80411;SDS011;69749;42.684;23.360;2024-02-21T03:09:36;11.57;;;7.45;;
80411;SDS011;69749;42.684;23.360;2024-02-21T03:12:03;12.48;;;6.75;;
80411;SDS011;69749;42.684;23.360;2024-02-21T03:14:29;9.80;;;6.85;;
80411;SDS011;69749;42.684;23.360;2024-02-21T03:16:55;12.15;;;7.18;;
80411;SDS011;69749;42.684;23.360;2024-02-21T03:19:21;12.23;;;8.57;;
80411;SDS011;69749;42.684;23.360;2024-02-21T03:21:46;12.20;;;8.02;;
80411;SDS011;69749;42.684;23.360;2024-02-21T03:24:12;11.05;;;7.07;;
80411;SDS011;69749;42.684;23.360;2024-02-21T03:26:37;13.10;;;7.60;;
80411;SDS011;69749;42.684;23.360;2024-02-21T03:29:03;11.05;;;7.40;;
80411;SDS011;69749;42.684;23.360;2024-02-21T03:31:29;12.40;;;7.30;;
80411;SDS011;69749;42.684;23.360;2024-02-21T03:33:54;13.48;;;7.85;;
80411;SDS011;69749;42.684;23.360;2024-02-21T03:36:20;14.75;;;8.77;;
80411;SDS011;69749;42.684;23.360;2024-02-21T03:38:46;12.30;;;7.97;;
80411;SDS011;69749;42.684;23.360;2024-02-21T03:41:11;12.68;;;7.45;;
80411;SDS011;69749;42.684;23.360;2024-02-21T03:43:37;11.55;;;8.13;;
80411;SDS011;69749;42.684;23.360;2024-02-21T03:46:04;11.63;;;7.88;;
80411;SDS011;69749;42.684;23.360;2024-02-21T03:48:29;11.63;;;7.70;;
80411;SDS011;69749;42.684;23.360;2024-02-21T03:50:55;13.75;;;8.32;;
80411;SDS011;69749;42.684;23.360;2024-02-21T03:53:20;13.02;;;8.07;;
80411;SDS011;69749;42.684;23.360;2024-02-21T03:55:46;14.00;;;8.57;;
80411;SDS011;69749;42.684;23.360;2024-02-21T03:58:11;13.57;;;8.73;;
80411;SDS011;69749;42.684;23.360;2024-02-21T04:00:37;11.70;;;8.25;;
80411;SDS011;69749;42.684;23.360;2024-02-21T04:03:02;13.43;;;8.60;;
80411;SDS011;69749;42.684;23.360;2024-02-21T04:05:28;11.15;;;7.75;;
80411;SDS011;69749;42.684;23.360;2024-02-21T04:07:53;14.98;;;8.32;;
80411;SDS011;69749;42.684;23.360;2024-02-21T04:10:19;12.85;;;8.20;;
80411;SDS011;69749;42.684;23.360;2024-02-21T04:12:44;14.27;;;9.27;;
80411;SDS011;69749;42.684;23.360;2024-02-21T04:15:10;13.57;;;8.73;;
80411;SDS011;69749;42.684;23.360;2024-02-21T04:17:36;13.93;;;8.85;;
80411;SDS011;69749;42.684;23.360;2024-02-21T04:20:05;13.15;;;8.05;;
80411;SDS011;69749;42.684;23.360;2024-02-21T04:22:32;13.60;;;8.75;;
80411;SDS011;69749;42.684;23.360;2024-02-21T04:25:01;12.65;;;8.20;;
80411;SDS011;69749;42.684;23.360;2024-02-21T04:27:27;12.63;;;8.18;;
80411;SDS011;69749;42.684;23.360;2024-02-21T04:29:52;12.63;;;7.97;;
80411;SDS011;69749;42.684;23.360;2024-02-21T04:32:18;15.05;;;7.90;;
80411;SDS011;69749;42.684;23.360;2024-02-21T04:34:44;14.05;;;8.73;;
80411;SDS011;69749;42.684;23.360;2024-02-21T04:37:09;14.52;;;8.63;;
80411;SDS011;69749;42.684;23.360;2024-02-21T04:39:35;15.20;;;8.40;;
80411;SDS011;69749;42.684;23.360;2024-02-21T04:42:00;16.85;;;9.98;;
80411;SDS011;69749;42.684;23.360;2024-02-21T04:44:26;14.43;;;9.18;;
80411;SDS011;69749;42.684;23.360;2024-02-21T04:46:51;12.65;;;8.20;;
80411;SDS011;69749;42.684;23.360;2024-02-21T04:49:17;14.40;;;8.90;;
80411;SDS011;69749;42.684;23.360;2024-02-21T04:51:42;13.02;;;8.13;;
80411;SDS011;69749;42.684;23.360;2024-02-21T04:54:08;15.85;;;9.75;;
80411;SDS011;69749;42.684;23.360;2024-02-21T04:56:34;14.13;;;8.38;;
80411;SDS011;69749;42.684;23.360;2024-02-21T04:58:59;16.92;;;8.40;;
80411;SDS011;69749;42.684;23.360;2024-02-21T05:01:25;16.73;;;8.95;;
80411;SDS011;69749;42.684;23.360;2024-02-21T05:03:50;14.02;;;8.30;;
80411;SDS011;69749;42.684;23.360;2024-02-21T05:06:16;13.70;;;9.20;;
80411;SDS011;69749;42.684;23.360;2024-02-21T05:08:42;12.52;;;8.20;;
80411;SDS011;69749;42.684;23.360;2024-02-21T05:11:07;13.98;;;9.02;;
80411;SDS011;69749;42.684;23.360;2024-02-21T05:13:33;13.57;;;8.70;;
80411;SDS011;69749;42.684;23.360;2024-02-21T05:15:58;15.02;;;8.73;;
80411;SDS011;69749;42.684;23.360;2024-02-21T05:20:52;12.50;;;8.50;;
80411;SDS011;69749;42.684;23.360;2024-02-21T05:23:17;14.88;;;9.60;;
80411;SDS011;69749;42.684;23.360;2024-02-21T05:25:43;14.10;;;9.38;;
80411;SDS011;69749;42.684;23.360;2024-02-21T05:28:08;13.52;;;9.40;;
80411;SDS011;69749;42.684;23.360;2024-02-21T05:30:34;14.95;;;9.25;;
80411;SDS011;69749;42.684;23.360;2024-02-21T05:33:03;14.20;;;8.30;;
80411;SDS011;69749;42.684;23.360;2024-02-21T05:35:32;13.90;;;9.38;;
80411;SDS011;69749;42.684;23.360;2024-02-21T05:37:58;15.32;;;9.43;;
80411;SDS011;69749;42.684;23.360;2024-02-21T05:40:24;17.95;;;9.18;;
80411;SDS011;69749;42.684;23.360;2024-02-21T05:42:51;15.27;;;9.15;;
80411;SDS011;69749;42.684;23.360;2024-02-21T05:45:17;15.00;;;9.57;;
80411;SDS011;69749;42.684;23.360;2024-02-21T05:47:43;16.00;;;9.60;;
80411;SDS011;69749;42.684;23.360;2024-02-21T05:50:09;17.08;;;9.75;;
80411;SDS011;69749;42.684;23.360;2024-02-21T05:52:35;15.55;;;10.32;;
80411;SDS011;69749;42.684;23.360;2024-02-21T05:55:00;16.42;;;10.57;;
80411;SDS011;69749;42.684;23.360;2024-02-21T05:57:26;17.52;;;10.82;;
80411;SDS011;69749;42.684;23.360;2024-02-21T05:59:51;18.35;;;10.65;;
80411;SDS011;69749;42.684;23.360;2024-02-21T06:02:17;15.73;;;10.25;;
80411;SDS011;69749;42.684;23.360;2024-02-21T06:04:42;18.70;;;9.82;;
80411;SDS011;69749;42.684;23.360;2024-02-21T06:07:09;16.58;;;10.15;;
80411;SDS011;69749;42.684;23.360;2024-02-21T06:09:35;15.13;;;10.13;;
80411;SDS011;69749;42.684;23.360;2024-02-21T06:12:00;16.73;;;10.57;;
80411;SDS011;69749;42.684;23.360;2024-02-21T06:14:26;18.00;;;10.50;;
80411;SDS011;69749;42.684;23.360;2024-02-21T06:16:51;14.85;;;10.10;;
80411;SDS011;69749;42.684;23.360;2024-02-21T06:19:17;18.20;;;10.73;;
80411;SDS011;69749;42.684;23.360;2024-02-21T06:21:42;13.35;;;9.10;;
80411;SDS011;69749;42.684;23.360;2024-02-21T06:24:08;15.52;;;9.80;;
80411;SDS011;69749;42.684;23.360;2024-02-21T06:26:33;16.55;;;10.40;;
80411;SDS011;69749;42.684;23.360;2024-02-21T06:28:59;15.75;;;10.00;;
80411;SDS011;69749;42.684;23.360;2024-02-21T06:31:25;15.52;;;9.68;;
80411;SDS011;69749;42.684;23.360;2024-02-21T06:33:50;19.27;;;9.45;;
80411;SDS011;69749;42.684;23.360;2024-02-21T06:36:16;14.20;;;9.30;;
80411;SDS011;69749;42.684;23.360;2024-02-21T06:38:41;16.02;;;9.57;;
80411;SDS011;69749;42.684;23.360;2024-02-21T06:41:14;18.45;;;9.70;;
80411;SDS011;69749;42.684;23.360;2024-02-21T06:43:44;19.40;;;10.48;;
80411;SDS011;69749;42.684;23.360;2024-02-21T06:46:11;18.02;;;10.88;;
80411;SDS011;69749;42.684;23.360;2024-02-21T06:48:37;18.92;;;10.88;;
80411;SDS011;69749;42.684;23.360;2024-02-21T06:51:03;16.67;;;10.85;;
80411;SDS011;69749;42.684;23.360;2024-02-21T06:53:29;16.48;;;10.52;;
80411;SDS011;69749;42.684;23.360;2024-02-21T06:55:55;16.83;;;11.65;;
80411;SDS011;69749;42.684;23.360;2024-02-21T06:58:20;16.17;;;10.00;;
80411;SDS011;69749;42.684;23.360;2024-02-21T07:00:46;16.88;;;10.02;;
80411;SDS011;69749;42.684;23.360;2024-02-21T07:03:11;20.23;;;11.23;;
80411;SDS011;69749;42.684;23.360;2024-02-21T07:05:37;16.10;;;10.45;;
80411;SDS011;69749;42.684;23.360;2024-02-21T07:08:02;19.52;;;11.30;;
80411;SDS011;69749;42.684;23.360;2024-02-21T07:10:28;21.23;;;11.50;;
80411;SDS011;69749;42.684;23.360;2024-02-21T07:12:54;21.00;;;11.57;;
80411;SDS011;69749;42.684;23.360;2024-02-21T07:15:20;16.85;;;11.13;;
80411;SDS011;69749;42.684;23.360;2024-02-21T07:17:46;22.25;;;12.23;;
80411;SDS011;69749;42.684;23.360;2024-02-21T07:20:11;19.42;;;12.40;;
80411;SDS011;69749;42.684;23.360;2024-02-21T07:22:37;20.83;;;12.32;;
80411;SDS011;69749;42.684;23.360;2024-02-21T07:25:03;21.13;;;12.57;;
80411;SDS011;69749;42.684;23.360;2024-02-21T07:27:28;20.65;;;13.00;;
80411;SDS011;69749;42.684;23.360;2024-02-21T07:29:56;19.70;;;12.15;;
80411;SDS011;69749;42.684;23.360;2024-02-21T07:32:22;19.52;;;11.93;;
80411;SDS011;69749;42.684;23.360;2024-02-21T07:34:47;20.70;;;11.32;;
80411;SDS011;69749;42.684;23.360;2024-02-21T07:37:13;24.27;;;12.13;;
80411;SDS011;69749;42.684;23.360;2024-02-21T07:39:38;21.48;;;11.82;;
80411;SDS011;69749;42.684;23.360;2024-02-21T07:42:04;18.80;;;10.52;;
80411;SDS011;69749;42.684;23.360;2024-02-21T07:44:30;17.35;;;10.75;;
80411;SDS011;69749;42.684;23.360;2024-02-21T07:46:56;18.42;;;11.65;;
80411;SDS011;69749;42.684;23.360;2024-02-21T07:49:22;27.10;;;11.52;;
80411;SDS011;69749;42.684;23.360;2024-02-21T07:51:47;23.45;;;12.60;;
80411;SDS011;69749;42.684;23.360;2024-02-21T07:54:13;33.22;;;18.90;;
80411;SDS011;69749;42.684;23.360;2024-02-21T07:56:39;20.48;;;11.02;;
80411;SDS011;69749;42.684;23.360;2024-02-21T07:59:04;15.15;;;9.40;;
80411;SDS011;69749;42.684;23.360;2024-02-21T08:01:30;16.35;;;9.85;;
80411;SDS011;69749;42.684;23.360;2024-02-21T08:03:55;17.80;;;11.15;;
80411;SDS011;69749;42.684;23.360;2024-02-21T08:06:21;19.73;;;11.52;;
80411;SDS011;69749;42.684;23.360;2024-02-21T08:08:47;20.55;;;11.30;;
80411;SDS011;69749;42.684;23.360;2024-02-21T08:11:12;19.15;;;10.20;;
80411;SDS011;69749;42.684;23.360;2024-02-21T08:13:38;19.88;;;11.32;;
80411;SDS011;69749;42.684;23.360;2024-02-21T08:16:03;17.98;;;10.88;;
80411;SDS011;69749;42.684;23.360;2024-02-21T08:18:29;17.38;;;11.30;;
80411;SDS011;69749;42.684;23.360;2024-02-21T08:20:55;18.67;;;11.07;;
80411;SDS011;69749;42.684;23.360;2024-02-21T08:23:23;18.33;;;10.02;;
80411;SDS011;69749;42.684;23.360;2024-02-21T08:25:49;16.50;;;10.98;;
80411;SDS011;69749;42.684;23.360;2024-02-21T08:28:14;17.95;;;10.88;;
80411;SDS011;69749;42.684;23.360;2024-02-21T08:30:40;18.15;;;10.27;;
80411;SDS011;69749;42.684;23.360;2024-02-21T08:33:09;14.68;;;9.20;;
80411;SDS011;69749;42.684;23.360;2024-02-21T08:35:35;19.00;;;11.38;;
80411;SDS011;69749;42.684;23.360;2024-02-21T08:38:00;17.20;;;10.07;;
80411;SDS011;69749;42.684;23.360;2024-02-21T08:40:26;16.40;;;10.45;;
80411;SDS011;69749;42.684;23.360;2024-02-21T08:42:51;18.02;;;10.98;;
80411;SDS011;69749;42.684;23.360;2024-02-21T08:45:18;15.98;;;10.57;;
80411;SDS011;69749;42.684;23.360;2024-02-21T08:47:44;16.23;;;9.95;;
80411;SDS011;69749;42.684;23.360;2024-02-21T08:50:10;15.27;;;9.02;;
80411;SDS011;69749;42.684;23.360;2024-02-21T08:52:36;14.32;;;9.98;;
80411;SDS011;69749;42.684;23.360;2024-02-21T08:55:01;13.98;;;9.60;;
80411;SDS011;69749;42.684;23.360;2024-02-21T08:57:27;13.90;;;9.90;;
80411;SDS011;69749;42.684;23.360;2024-02-21T08:59:53;17.02;;;9.05;;
80411;SDS011;69749;42.684;23.360;2024-02-21T09:02:18;15.82;;;9.48;;
80411;SDS011;69749;42.684;23.360;2024-02-21T09:04:44;12.23;;;8.73;;
80411;SDS011;69749;42.684;23.360;2024-02-21T09:07:10;13.73;;;9.00;;
80411;SDS011;69749;42.684;23.360;2024-02-21T09:09:36;13.77;;;9.55;;
80411;SDS011;69749;42.684;23.360;2024-02-21T09:12:03;11.93;;;8.75;;
80411;SDS011;69749;42.684;23.360;2024-02-21T09:14:34;13.15;;;9.18;;
80411;SDS011;69749;42.684;23.360;2024-02-21T09:17:03;15.25;;;9.50;;
80411;SDS011;69749;42.684;23.360;2024-02-21T09:19:29;15.10;;;8.95;;
80411;SDS011;69749;42.684;23.360;2024-02-21T09:21:54;14.93;;;9.95;;
80411;SDS011;69749;42.684;23.360;2024-02-21T09:24:20;12.35;;;8.82;;
80411;SDS011;69749;42.684;23.360;2024-02-21T09:26:46;15.00;;;9.68;;
80411;SDS011;69749;42.684;23.360;2024-02-21T09:29:12;13.32;;;9.55;;
80411;SDS011;69749;42.684;23.360;2024-02-21T09:31:37;14.30;;;9.48;;
80411;SDS011;69749;42.684;23.360;2024-02-21T09:34:04;14.88;;;9.50;;
80411;SDS011;69749;42.684;23.360;2024-02-21T09:36:29;12.02;;;9.02;;
80411;SDS011;69749;42.684;23.360;2024-02-21T09:38:55;15.90;;;9.80;;
80411;SDS011;69749;42.684;23.360;2024-02-21T09:41:27;12.40;;;9.55;;
80411;SDS011;69749;42.684;23.360;2024-02-21T09:43:53;12.82;;;9.73;;
80411;SDS011;69749;42.684;23.360;2024-02-21T09:46:19;15.27;;;9.73;;
80411;SDS011;69749;42.684;23.360;2024-02-21T09:49:03;14.02;;;9.45;;
80411;SDS011;69749;42.684;23.360;2024-02-21T09:51:49;14.32;;;9.55;;
80411;SDS011;69749;42.684;23.360;2024-02-21T09:54:19;14.07;;;9.77;;
80411;SDS011;69749;42.684;23.360;2024-02-21T09:56:46;14.02;;;10.75;;
80411;SDS011;69749;42.684;23.360;2024-02-21T09:59:12;16.50;;;10.00;;
80411;SDS011;69749;42.684;23.360;2024-02-21T10:01:42;15.05;;;10.50;;
80411;SDS011;69749;42.684;23.360;2024-02-21T10:04:09;17.67;;;10.20;;
80411;SDS011;69749;42.684;23.360;2024-02-21T10:06:35;15.23;;;10.00;;
80411;SDS011;69749;42.684;23.360;2024-02-21T10:09:02;20.75;;;10.40;;
80411;SDS011;69749;42.684;23.360;2024-02-21T10:11:28;13.43;;;9.38;;
80411;SDS011;69749;42.684;23.360;2024-02-21T10:14:03;17.40;;;11.13;;
80411;SDS011;69749;42.684;23.360;2024-02-21T10:16:32;11.82;;;8.63;;
80411;SDS011;69749;42.684;23.360;2024-02-21T10:18:58;11.25;;;8.30;;
80411;SDS011;69749;42.684;23.360;2024-02-21T10:21:24;12.25;;;7.50;;
80411;SDS011;69749;42.684;23.360;2024-02-21T10:23:50;11.65;;;8.52;;
80411;SDS011;69749;42.684;23.360;2024-02-21T10:26:20;14.52;;;9.18;;
80411;SDS011;69749;42.684;23.360;2024-02-21T10:28:46;12.15;;;8.57;;
80411;SDS011;69749;42.684;23.360;2024-02-21T10:33:55;11.40;;;6.97;;
80411;SDS011;69749;42.684;23.360;2024-02-21T10:36:30;9.68;;;5.93;;
80411;SDS011;69749;42.684;23.360;2024-02-21T10:38:56;8.20;;;6.25;;
80411;SDS011;69749;42.684;23.360;2024-02-21T10:41:22;12.13;;;6.95;;
80411;SDS011;69749;42.684;23.360;2024-02-21T10:43:50;11.70;;;7.18;;
80411;SDS011;69749;42.684;23.360;2024-02-21T10:46:19;10.85;;;6.40;;
80411;SDS011;69749;42.684;23.360;2024-02-21T10:48:45;9.18;;;6.78;;
80411;SDS011;69749;42.684;23.360;2024-02-21T10:51:19;9.38;;;6.47;;
80411;SDS011;69749;42.684;23.360;2024-02-21T10:53:54;10.85;;;6.95;;
80411;SDS011;69749;42.684;23.360;2024-02-21T10:56:45;8.73;;;6.72;;
80411;SDS011;69749;42.684;23.360;2024-02-21T10:59:12;11.20;;;6.93;;
80411;SDS011;69749;42.684;23.360;2024-02-21T11:01:41;10.15;;;6.72;;
80411;SDS011;69749;42.684;23.360;2024-02-21T11:04:10;9.32;;;6.40;;
80411;SDS011;69749;42.684;23.360;2024-02-21T11:06:39;9.90;;;6.97;;
80411;SDS011;69749;42.684;23.360;2024-02-21T11:09:09;9.13;;;6.00;;
80411;SDS011;69749;42.684;23.360;2024-02-21T11:11:37;9.00;;;5.93;;
80411;SDS011;69749;42.684;23.360;2024-02-21T11:14:05;7.88;;;5.53;;
80411;SDS011;69749;42.684;23.360;2024-02-21T11:16:41;7.22;;;5.55;;
80411;SDS011;69749;42.684;23.360;2024-02-21T11:19:18;6.85;;;4.20;;
80411;SDS011;69749;42.684;23.360;2024-02-21T11:21:46;5.72;;;4.85;;
80411;SDS011;69749;42.684;23.360;2024-02-21T11:24:13;6.13;;;4.65;;
80411;SDS011;69749;42.684;23.360;2024-02-21T11:26:39;4.78;;;3.72;;
80411;SDS011;69749;42.684;23.360;2024-02-21T11:29:08;6.93;;;4.68;;
80411;SDS011;69749;42.684;23.360;2024-02-21T11:31:39;5.32;;;3.92;;
80411;SDS011;69749;42.684;23.360;2024-02-21T11:34:09;4.85;;;3.97;;
80411;SDS011;69749;42.684;23.360;2024-02-21T11:36:36;5.00;;;4.10;;
80411;SDS011;69749;42.684;23.360;2024-02-21T11:39:11;5.82;;;4.45;;
80411;SDS011;69749;42.684;23.360;2024-02-21T11:41:36;7.28;;;4.47;;
80411;SDS011;69749;42.684;23.360;2024-02-21T11:44:02;5.35;;;3.70;;
80411;SDS011;69749;42.684;23.360;2024-02-21T11:46:28;4.95;;;3.80;;
80411;SDS011;69749;42.684;23.360;2024-02-21T11:48:57;5.65;;;3.75;;
80411;SDS011;69749;42.684;23.360;2024-02-21T11:51:26;5.32;;;4.13;;
80411;SDS011;69749;42.684;23.360;2024-02-21T11:53:52;6.47;;;4.43;;
80411;SDS011;69749;42.684;23.360;2024-02-21T11:56:18;6.68;;;4.30;;
80411;SDS011;69749;42.684;23.360;2024-02-21T11:58:48;5.75;;;4.40;;
80411;SDS011;69749;42.684;23.360;2024-02-21T12:01:14;6.65;;;4.75;;
80411;SDS011;69749;42.684;23.360;2024-02-21T12:03:40;5.95;;;4.38;;
80411;SDS011;69749;42.684;23.360;2024-02-21T12:08:43;7.85;;;4.50;;
80411;SDS011;69749;42.684;23.360;2024-02-21T12:11:19;6.32;;;4.85;;
80411;SDS011;69749;42.684;23.360;2024-02-21T12:13:46;4.47;;;3.78;;
80411;SDS011;69749;42.684;23.360;2024-02-21T12:16:14;4.88;;;4.20;;
80411;SDS011;69749;42.684;23.360;2024-02-21T12:18:41;8.10;;;5.25;;
80411;SDS011;69749;42.684;23.360;2024-02-21T12:21:07;7.70;;;5.50;;
80411;SDS011;69749;42.684;23.360;2024-02-21T12:23:37;7.78;;;5.65;;
80411;SDS011;69749;42.684;23.360;2024-02-21T12:26:04;5.90;;;4.93;;
80411;SDS011;69749;42.684;23.360;2024-02-21T12:28:30;8.60;;;5.60;;
80411;SDS011;69749;42.684;23.360;2024-02-21T12:30:58;6.93;;;4.72;;
80411;SDS011;69749;42.684;23.360;2024-02-21T12:33:24;9.55;;;5.05;;
80411;SDS011;69749;42.684;23.360;2024-02-21T12:35:49;6.80;;;4.70;;
80411;SDS011;69749;42.684;23.360;2024-02-21T12:38:15;7.57;;;4.70;;
80411;SDS011;69749;42.684;23.360;2024-02-21T12:40:43;8.23;;;5.15;;
80411;SDS011;69749;42.684;23.360;2024-02-21T12:43:08;6.72;;;4.47;;
80411;SDS011;69749;42.684;23.360;2024-02-21T12:45:34;5.47;;;4.45;;
80411;SDS011;69749;42.684;23.360;2024-02-21T12:48:00;11.57;;;5.30;;
80411;SDS011;69749;42.684;23.360;2024-02-21T12:50:25;7.55;;;5.20;;
80411;SDS011;69749;42.684;23.360;2024-02-21T12:52:51;7.05;;;4.82;;
80411;SDS011;69749;42.684;23.360;2024-02-21T12:55:16;7.65;;;5.15;;
80411;SDS011;69749;42.684;23.360;2024-02-21T12:57:42;7.15;;;4.95;;
80411;SDS011;69749;42.684;23.360;2024-02-21T13:00:09;10.40;;;6.03;;
80411;SDS011;69749;42.684;23.360;2024-02-21T13:02:36;8.88;;;5.82;;
80411;SDS011;69749;42.684;23.360;2024-02-21T13:05:01;7.90;;;6.13;;
80411;SDS011;69749;42.684;23.360;2024-02-21T13:07:28;9.02;;;6.40;;
80411;SDS011;69749;42.684;23.360;2024-02-21T13:09:54;10.23;;;6.55;;
80411;SDS011;69749;42.684;23.360;2024-02-21T13:12:19;8.90;;;6.25;;
80411;SDS011;69749;42.684;23.360;2024-02-21T13:14:45;9.15;;;5.90;;
80411;SDS011;69749;42.684;23.360;2024-02-21T13:17:11;8.50;;;6.47;;
80411;SDS011;69749;42.684;23.360;2024-02-21T13:19:36;8.18;;;5.55;;
80411;SDS011;69749;42.684;23.360;2024-02-21T13:22:02;10.70;;;6.55;;
80411;SDS011;69749;42.684;23.360;2024-02-21T13:24:27;8.50;;;6.15;;
80411;SDS011;69749;42.684;23.360;2024-02-21T13:26:54;9.70;;;7.15;;
80411;SDS011;69749;42.684;23.360;2024-02-21T13:29:19;9.88;;;6.93;;
80411;SDS011;69749;42.684;23.360;2024-02-21T13:31:45;9.60;;;6.57;;
80411;SDS011;69749;42.684;23.360;2024-02-21T13:34:11;9.52;;;6.78;;
80411;SDS011;69749;42.684;23.360;2024-02-21T13:36:36;7.30;;;5.20;;
80411;SDS011;69749;42.684;23.360;2024-02-21T13:39:02;8.68;;;5.47;;
80411;SDS011;69749;42.684;23.360;2024-02-21T13:43:56;8.27;;;5.45;;
80411;SDS011;69749;42.684;23.360;2024-02-21T13:46:21;8.95;;;5.55;;
80411;SDS011;69749;42.684;23.360;2024-02-21T13:48:47;5.70;;;4.45;;
80411;SDS011;69749;42.684;23.360;2024-02-21T13:51:12;7.20;;;5.07;;
80411;SDS011;69749;42.684;23.360;2024-02-21T13:53:38;8.95;;;5.90;;
80411;SDS011;69749;42.684;23.360;2024-02-21T13:56:03;6.38;;;5.00;;
80411;SDS011;69749;42.684;23.360;2024-02-21T13:58:29;9.80;;;5.68;;
80411;SDS011;69749;42.684;23.360;2024-02-21T14:00:55;8.13;;;5.85;;
80411;SDS011;69749;42.684;23.360;2024-02-21T14:03:21;8.52;;;5.82;;
80411;SDS011;69749;42.684;23.360;2024-02-21T14:05:47;10.65;;;6.25;;
80411;SDS011;69749;42.684;23.360;2024-02-21T14:08:13;7.70;;;5.97;;
80411;SDS011;69749;42.684;23.360;2024-02-21T14:10:39;11.95;;;6.30;;
80411;SDS011;69749;42.684;23.360;2024-02-21T14:13:05;10.10;;;6.00;;
80411;SDS011;69749;42.684;23.360;2024-02-21T14:15:30;8.30;;;5.80;;
80411;SDS011;69749;42.684;23.360;2024-02-21T14:17:56;8.43;;;5.68;;
80411;SDS011;69749;42.684;23.360;2024-02-21T14:20:22;8.55;;;5.18;;
80411;SDS011;69749;42.684;23.360;2024-02-21T14:22:47;7.93;;;5.35;;
80411;SDS011;69749;42.684;23.360;2024-02-21T14:25:13;6.35;;;4.55;;
80411;SDS011;69749;42.684;23.360;2024-02-21T14:30:06;7.28;;;4.95;;
80411;SDS011;69749;42.684;23.360;2024-02-21T14:32:35;10.70;;;5.13;;